Time;durP1;ratioP1;P1;durP2;ratioP2;P2;SDS_P1;SDS_P2;PMS_P1;PMS_P2;Temp;Humidity;BMP_temperature;BMP_pressure;BME280_temperature;BME280_humidity;BME280_pressure;Samples;Min_cycle;Max_cycle;Signal;HPM_P1;HPM_P2
2022/05/23 00:00:40;;;;;;;5.05;3.08;;;;;;;12.22;64.78;100776.75;7396442;19;20134;-68
2022/05/23 00:03:11;;;;;;;4.30;2.30;;;;;;;12.18;64.96;100769.81;7398495;19;20115;-68
2022/05/23 00:05:39;;;;;;;3.92;2.20;;;;;;;12.15;64.95;100776.03;7396732;19;20028;-67
2022/05/23 00:08:08;;;;;;;5.72;2.50;;;;;;;12.12;64.84;100777.88;7396410;19;20028;-68
2022/05/23 00:10:36;;;;;;;2.45;1.90;;;;;;;12.06;64.97;100776.28;7396130;19;20014;-68
2022/05/23 00:13:06;;;;;;;8.50;2.20;;;;;;;12.01;65.12;100765.03;7396117;19;20022;-68
2022/05/23 00:15:34;;;;;;;5.55;2.20;;;;;;;11.98;65.07;100768.63;7395911;19;20082;-68
2022/05/23 00:18:02;;;;;;;3.20;2.05;;;;;;;11.93;65.16;100759.06;7396013;19;20019;-68
2022/05/23 00:20:40;;;;;;;4.68;2.13;;;;;;;11.88;65.43;100754.81;7395846;19;20027;-67
2022/05/23 00:23:08;;;;;;;5.50;2.70;;;;;;;11.84;65.28;100761.06;7396634;19;20011;-67
2022/05/23 00:25:37;;;;;;;2.95;2.20;;;;;;;11.79;65.28;100752.44;7397476;19;20490;-67
2022/05/23 00:28:05;;;;;;;4.30;2.60;;;;;;;11.77;65.33;100748.13;7397280;19;20375;-68
2022/05/23 00:30:33;;;;;;;5.38;2.80;;;;;;;11.74;65.39;100755.19;7395959;19;20015;-68
2022/05/23 00:35:52;;;;;;;5.35;2.60;;;;;;;11.70;65.50;100750.03;7396922;19;20015;-68
2022/05/23 00:38:21;;;;;;;4.82;2.80;;;;;;;11.64;65.42;100743.19;7397795;19;20400;-69
2022/05/23 00:43:13;;;;;;;3.65;2.15;;;;;;;11.60;65.56;100751.19;7395486;19;20026;-68
2022/05/23 00:43:38;;;;;;;5.03;2.83;;;;;;;11.54;65.55;100737.31;7396669;19;20017;-68
2022/05/23 00:46:07;;;;;;;3.95;2.60;;;;;;;11.49;65.58;100731.31;7395710;19;20419;-68
2022/05/23 00:48:36;;;;;;;3.08;2.75;;;;;;;11.43;65.81;100723.59;7396910;19;20011;-66
2022/05/23 00:51:13;;;;;;;5.65;3.25;;;;;;;11.39;65.85;100729.81;7394997;19;20039;-68
2022/05/23 00:53:44;;;;;;;4.15;2.72;;;;;;;11.33;66.01;100729.97;7395598;19;20024;-68
2022/05/23 00:56:15;;;;;;;5.72;3.47;;;;;;;11.27;66.23;100722.25;7397510;19;20022;-68
2022/05/23 00:58:46;;;;;;;3.78;2.78;;;;;;;11.24;66.28;100720.56;7397195;19;20027;-69
2022/05/23 01:01:17;;;;;;;6.38;2.55;;;;;;;11.15;66.32;100713.78;7397122;19;20027;-68
2022/05/23 01:03:45;;;;;;;5.00;2.67;;;;;;;11.13;66.59;100718.19;7395254;19;20014;-66
2022/05/23 01:06:17;;;;;;;2.78;2.58;;;;;;;11.05;66.62;100709.66;7396350;19;20043;-68
2022/05/23 01:08:48;;;;;;;2.90;2.10;;;;;;;11.00;66.81;100708.91;7396620;19;20031;-68
2022/05/23 01:11:16;;;;;;;5.05;2.90;;;;;;;10.94;66.88;100703.78;7394327;19;20414;-68
2022/05/23 01:13:45;;;;;;;5.85;2.95;;;;;;;10.89;66.87;100693.41;7396871;19;20031;-68
2022/05/23 01:16:13;;;;;;;5.50;3.92;;;;;;;10.86;67.18;100689.09;7395310;19;20035;-67
2022/05/23 01:18:41;;;;;;;4.90;3.17;;;;;;;10.84;67.11;100687.41;7395957;19;20014;-68
2022/05/23 01:21:17;;;;;;;4.03;2.75;;;;;;;10.80;67.30;100691.00;7395954;19;20015;-68
2022/05/23 01:23:53;;;;;;;4.80;3.10;;;;;;;10.75;67.42;100701.59;7394449;19;20024;-67
2022/05/23 01:26:24;;;;;;;3.60;2.70;;;;;;;10.72;67.51;100696.44;7395488;19;20359;-68
2022/05/23 01:28:53;;;;;;;4.25;2.75;;;;;;;10.70;67.68;100690.34;7394468;19;20022;-68
2022/05/23 01:31:21;;;;;;;3.28;2.90;;;;;;;10.67;67.70;100693.91;7393952;19;20029;-66
2022/05/23 01:33:49;;;;;;;4.03;3.30;;;;;;;10.65;67.81;100693.06;7393952;19;20015;-66
2022/05/23 01:36:18;;;;;;;5.97;3.53;;;;;;;10.64;67.81;100693.09;7394856;19;20014;-67
2022/05/23 01:38:46;;;;;;;3.47;3.10;;;;;;;10.61;68.03;100691.41;7393598;19;20010;-67
2022/05/23 01:41:14;;;;;;;4.10;3.08;;;;;;;10.58;68.13;100692.34;7395391;19;20018;-66
2022/05/23 01:43:45;;;;;;;4.53;3.20;;;;;;;10.57;68.34;100685.38;7394958;19;20392;-67
2022/05/23 01:46:13;;;;;;;5.28;3.38;;;;;;;10.53;68.21;100688.97;7395794;19;20036;-67
2022/05/23 01:48:41;;;;;;;4.72;3.50;;;;;;;10.51;68.41;100687.28;7395158;19;20018;-67
2022/05/23 01:51:09;;;;;;;6.40;3.15;;;;;;;10.47;68.51;100683.84;7393338;19;20023;-66
2022/05/23 01:53:37;;;;;;;6.53;3.40;;;;;;;10.43;68.81;100688.31;7395100;19;20034;-67
2022/05/23 01:56:06;;;;;;;4.93;3.72;;;;;;;10.40;68.88;100683.13;7393111;19;20011;-66
2022/05/23 02:01:18;;;;;;;3.88;3.47;;;;;;;10.33;69.04;100680.66;7394632;19;20018;-67
2022/05/23 02:03:49;;;;;;;4.97;3.90;;;;;;;10.28;69.34;100671.09;7392524;19;20480;-67
2022/05/23 02:06:17;;;;;;;4.03;3.65;;;;;;;10.25;69.44;100679.06;7393196;19;20110;-67
2022/05/23 02:08:46;;;;;;;5.80;3.78;;;;;;;10.21;69.54;100682.66;7394395;19;20018;-66
2022/05/23 02:11:14;;;;;;;3.80;3.42;;;;;;;10.20;69.67;100680.06;7400442;19;20018;-67
2022/05/23 02:13:45;;;;;;;4.40;3.92;;;;;;;10.16;69.85;100673.13;7400404;19;20011;-66
2022/05/23 02:16:14;;;;;;;5.53;3.72;;;;;;;10.13;69.93;100676.69;7399422;19;20488;-67
2022/05/23 02:18:45;;;;;;;6.15;3.92;;;;;;;10.11;70.18;100681.97;7401911;19;20026;-68
2022/05/23 02:21:13;;;;;;;4.45;3.75;;;;;;;10.09;70.13;100681.13;7401396;19;20492;-66
2022/05/23 02:23:42;;;;;;;4.72;3.65;;;;;;;10.07;70.33;100680.31;7398443;19;20027;-67
2022/05/23 02:26:10;;;;;;;6.47;4.22;;;;;;;10.07;70.49;100680.31;7402273;19;20015;-68
2022/05/23 02:28:38;;;;;;;4.68;3.80;;;;;;;10.07;70.60;100671.56;7400035;19;20023;-66
2022/05/23 02:31:06;;;;;;;5.38;3.63;;;;;;;10.04;70.73;100659.38;7398845;19;20011;-67
2022/05/23 02:33:35;;;;;;;6.07;3.88;;;;;;;10.03;70.81;100664.66;7401439;19;20026;-67
2022/05/23 02:36:07;;;;;;;4.10;3.70;;;;;;;10.03;71.21;100669.91;7398298;19;20074;-66
2022/05/23 02:38:35;;;;;;;4.60;4.10;;;;;;;10.02;71.31;100670.81;7401443;19;20040;-66
2022/05/23 02:41:03;;;;;;;4.15;3.38;;;;;;;10.02;71.25;100674.31;7398372;19;20031;-67
2022/05/23 02:43:31;;;;;;;6.25;3.70;;;;;;;10.03;71.57;100662.06;7398516;19;20030;-67
2022/05/23 02:45:59;;;;;;;6.15;4.03;;;;;;;10.05;71.62;100660.28;7398472;19;20018;-67
2022/05/23 02:48:28;;;;;;;5.30;3.83;;;;;;;10.04;71.70;100661.16;7400983;19;20014;-66
2022/05/23 02:50:56;;;;;;;6.60;4.32;;;;;;;10.03;71.65;100662.06;7397527;19;20506;-67
2022/05/23 02:53:26;;;;;;;6.22;3.90;;;;;;;10.04;71.89;100671.66;7397962;19;20027;-67
2022/05/23 02:55:55;;;;;;;5.97;4.15;;;;;;;10.04;71.85;100669.03;7397484;19;20506;-67
2022/05/23 02:58:23;;;;;;;6.57;4.00;;;;;;;10.03;71.90;100672.53;7397964;19;20015;-66
2022/05/23 03:00:52;;;;;;;4.60;3.63;;;;;;;10.04;72.08;100679.50;7397854;19;20018;-67
2022/05/23 03:03:18;;;;;;;9.07;4.50;;;;;;;10.02;71.95;100674.31;7400107;19;20499;-67
2022/05/23 03:05:47;;;;;;;5.65;4.03;;;;;;;9.97;72.48;100670.03;7399662;19;20006;-67
2022/05/23 03:08:18;;;;;;;6.18;4.63;;;;;;;9.98;72.19;100674.38;7399535;19;20481;-67
2022/05/23 03:10:51;;;;;;;6.55;4.10;;;;;;;9.94;72.43;100677.09;7397732;19;20035;-67
2022/05/23 03:13:19;;;;;;;5.22;4.57;;;;;;;9.92;72.41;100678.88;7397751;19;20360;-66
2022/05/23 03:15:47;;;;;;;6.03;4.25;;;;;;;9.90;72.58;100683.25;7399901;19;20022;-67
2022/05/23 03:18:16;;;;;;;5.68;4.30;;;;;;;9.88;72.68;100681.56;7397629;19;20025;-66
2022/05/23 03:20:44;;;;;;;4.70;4.22;;;;;;;9.86;72.78;100672.88;7396342;19;20074;-66
2022/05/23 03:28:39;;;;;;;5.10;4.18;;;;;;;9.80;72.86;100675.63;7399450;19;20020;-66
2022/05/23 03:31:08;;;;;;;6.72;4.35;;;;;;;9.76;73.00;100675.66;7399255;19;20015;-66
2022/05/23 03:33:36;;;;;;;6.97;5.15;;;;;;;9.75;73.25;100673.94;7396595;19;20032;-66
2022/05/23 03:36:08;;;;;;;5.10;4.22;;;;;;;9.74;73.25;100667.00;7397162;19;20015;-66
2022/05/23 03:38:36;;;;;;;6.47;4.32;;;;;;;9.75;73.45;100670.47;7396532;19;20052;-65
2022/05/23 03:41:10;;;;;;;7.53;5.22;;;;;;;9.75;73.48;100673.94;7395969;19;20023;-67
2022/05/23 03:43:39;;;;;;;8.90;4.70;;;;;;;9.76;73.44;100677.44;7397907;19;20082;-66
2022/05/23 03:46:09;;;;;;;10.45;4.90;;;;;;;9.79;73.59;100674.75;7396293;19;20037;-67
2022/05/23 03:48:38;;;;;;;6.57;4.95;;;;;;;9.82;73.75;100673.81;7398780;19;20067;-67
2022/05/23 03:51:07;;;;;;;8.18;4.68;;;;;;;9.84;73.74;100665.03;7396452;19;20018;-68
2022/05/23 03:53:36;;;;;;;7.20;5.18;;;;;;;9.87;73.86;100661.50;7396619;19;20018;-67
2022/05/23 03:56:05;;;;;;;6.65;4.90;;;;;;;9.88;74.01;100669.34;7398261;19;20485;-66
2022/05/23 03:58:35;;;;;;;7.95;4.82;;;;;;;9.89;74.14;100660.56;7398674;19;20367;-68
2022/05/23 04:01:08;;;;;;;5.47;4.88;;;;;;;9.92;74.08;100668.38;7396143;19;20018;-67
2022/05/23 04:03:37;;;;;;;7.00;4.88;;;;;;;9.95;73.98;100664.84;7398354;19;20019;-67
2022/05/23 04:06:05;;;;;;;5.70;4.80;;;;;;;9.98;74.16;100661.28;7397638;19;20018;-67
2022/05/23 04:08:34;;;;;;;6.32;5.00;;;;;;;10.01;74.11;100666.44;7397689;19;20058;-66
2022/05/23 04:11:02;;;;;;;8.50;5.05;;;;;;;10.03;74.32;100662.06;7395509;19;20031;-68
2022/05/23 04:13:31;;;;;;;4.40;4.00;;;;;;;10.04;74.19;100661.16;7398023;19;20022;-67
2022/05/23 04:16:02;;;;;;;8.98;4.68;;;;;;;10.07;74.39;100653.22;7395799;19;20023;-67
2022/05/23 04:18:30;;;;;;;9.30;5.25;;;;;;;10.10;74.27;100651.41;7396967;19;20018;-68
2022/05/23 04:21:01;;;;;;;9.75;6.63;;;;;;;10.12;74.30;100646.13;7395452;19;20022;-66
2022/05/23 04:23:29;;;;;;;6.85;5.00;;;;;;;10.15;74.36;100655.66;7396344;19;20372;-67
2022/05/23 04:26:03;;;;;;;7.22;4.85;;;;;;;10.17;74.49;100657.38;7395273;19;20039;-66
2022/05/23 04:28:31;;;;;;;6.77;4.80;;;;;;;10.20;74.41;100659.09;7397548;19;20031;-67
2022/05/23 04:31:02;;;;;;;5.75;5.15;;;;;;;10.23;74.44;100659.84;7395295;19;20019;-66
2022/05/23 04:36:11;;;;;;;5.32;4.50;;;;;;;10.32;74.39;100674.53;7396807;19;20513;-67
2022/05/23 04:38:39;;;;;;;4.85;4.13;;;;;;;10.35;74.39;100669.22;7395072;19;20035;-67
2022/05/23 04:41:08;;;;;;;9.57;5.05;;;;;;;10.41;74.31;100661.28;7395091;19;20022;-67
2022/05/23 04:43:36;;;;;;;5.32;4.38;;;;;;;10.46;74.27;100650.66;7397673;19;20021;-67
2022/05/23 04:46:07;;;;;;;5.85;4.35;;;;;;;10.52;74.26;100654.91;7394778;19;20032;-66
2022/05/23 04:51:22;;;;;;;8.88;4.80;;;;;;;10.63;74.08;100631.91;7396750;19;20014;-66
2022/05/23 04:53:53;;;;;;;5.75;4.28;;;;;;;10.69;73.90;100638.75;7396304;19;20035;-67
2022/05/23 04:56:21;;;;;;;8.10;5.03;;;;;;;10.74;73.96;100640.38;7395987;19;20367;-69
2022/05/23 04:58:50;;;;;;;6.35;4.28;;;;;;;10.80;73.89;100639.38;7392885;19;20018;-66
2022/05/23 05:01:21;;;;;;;8.82;4.60;;;;;;;10.87;73.98;100630.44;7394588;19;20039;-67
2022/05/23 05:03:49;;;;;;;5.13;4.03;;;;;;;10.96;73.63;100629.34;7395762;19;20011;-66
2022/05/23 05:06:18;;;;;;;4.38;3.97;;;;;;;11.03;73.57;100622.19;7394148;19;20086;-65
2022/05/23 05:08:46;;;;;;;7.05;5.18;;;;;;;11.11;73.39;100622.84;7392621;19;20022;-67
2022/05/23 05:11:35;;;;;;;6.30;4.35;;;;;;;11.19;73.36;100620.88;7394706;19;20374;-67
2022/05/23 05:14:05;;;;;;;6.97;3.92;;;;;;;11.27;73.18;100614.56;7395087;19;20039;-67
2022/05/23 05:16:36;;;;;;;6.05;4.07;;;;;;;11.35;72.94;100613.47;7393965;19;20096;-67
2022/05/23 05:19:04;;;;;;;6.32;4.25;;;;;;;11.44;72.99;100607.09;7393236;19;20067;-66
2022/05/23 05:21:32;;;;;;;6.82;4.35;;;;;;;11.52;72.98;100607.72;7392438;19;20027;-67
2022/05/23 05:24:07;;;;;;;7.10;4.05;;;;;;;11.61;72.68;100603.13;7391970;19;20023;-66
2022/05/23 05:26:35;;;;;;;5.68;3.45;;;;;;;11.70;72.61;100595.88;7394418;19;20022;-68
2022/05/23 05:29:03;;;;;;;5.65;3.38;;;;;;;11.79;72.25;100591.22;7391962;19;20458;-67
2022/05/23 05:31:40;;;;;;;4.53;3.53;;;;;;;11.90;72.03;100597.91;7393131;19;20055;-67
2022/05/23 05:34:16;;;;;;;4.43;3.72;;;;;;;12.02;72.14;100595.84;7393396;19;20027;-67
2022/05/23 05:36:49;;;;;;;4.20;2.97;;;;;;;12.12;71.77;100588.53;7392819;19;20037;-68
2022/05/23 05:39:18;;;;;;;5.13;3.30;;;;;;;12.23;71.46;100586.41;7393675;19;20026;-68
2022/05/23 05:41:51;;;;;;;7.90;3.72;;;;;;;12.34;71.24;100592.22;7394364;19;20484;-69
2022/05/23 05:44:24;;;;;;;6.85;3.15;;;;;;;12.46;70.82;100582.22;7394440;19;20022;-69
2022/05/23 05:47:00;;;;;;;3.83;3.00;;;;;;;12.57;70.52;100580.09;7393778;19;20461;-67
2022/05/23 05:49:30;;;;;;;5.78;2.75;;;;;;;12.69;70.27;100584.97;7394458;19;20019;-68
2022/05/23 05:52:03;;;;;;;4.93;3.05;;;;;;;12.77;70.12;100571.53;7394912;19;20039;-67
2022/05/23 05:54:32;;;;;;;3.67;2.72;;;;;;;12.89;69.85;100578.19;7394887;19;20078;-65
2022/05/23 05:57:03;;;;;;;4.97;2.67;;;;;;;13.00;69.49;100569.88;7393229;19;20022;-68
2022/05/23 05:59:32;;;;;;;3.97;2.70;;;;;;;13.09;69.32;100569.59;7393623;19;20481;-66
2022/05/23 06:02:03;;;;;;;3.80;2.97;;;;;;;13.19;68.96;100570.97;7392552;19;20019;-67
2022/05/23 06:04:31;;;;;;;3.72;2.60;;;;;;;13.30;68.86;100560.03;7391344;19;20391;-67
2022/05/23 06:12:20;;;;;;;5.85;3.20;;;;;;;13.63;67.99;100551.84;7394347;19;20014;-66
2022/05/23 06:14:48;;;;;;;6.20;2.67;;;;;;;13.74;67.68;100545.31;7393985;19;20031;-67
2022/05/23 06:17:19;;;;;;;5.00;2.42;;;;;;;13.86;67.13;100544.84;7392004;19;20018;-66
2022/05/23 06:19:49;;;;;;;5.93;2.28;;;;;;;13.97;66.84;100537.34;7392986;19;20029;-66
2022/05/23 06:22:19;;;;;;;4.53;2.65;;;;;;;14.09;66.41;100536.03;7393486;19;20497;-66
2022/05/23 06:24:53;;;;;;;6.40;2.50;;;;;;;14.22;66.14;100530.28;7390352;19;20014;-68
2022/05/23 06:27:21;;;;;;;3.28;2.03;;;;;;;14.32;65.56;100535.09;7393605;19;20031;-68
2022/05/23 06:29:49;;;;;;;3.85;2.10;;;;;;;14.43;65.23;100531.16;7392130;19;20039;-67
2022/05/23 06:32:20;;;;;;;6.40;2.80;;;;;;;14.56;64.95;100523.59;7390532;19;20026;-66
2022/05/23 06:34:48;;;;;;;9.70;3.38;;;;;;;14.66;64.66;100512.63;7393231;19;20023;-67
2022/05/23 06:37:16;;;;;;;6.20;3.08;;;;;;;14.79;64.30;100517.38;7392145;19;20022;-66
2022/05/23 06:39:45;;;;;;;4.97;2.45;;;;;;;14.92;63.66;100515.06;7390736;19;20022;-67
2022/05/23 06:42:13;;;;;;;4.03;2.03;;;;;;;15.03;63.49;100507.53;7392309;19;20030;-67
2022/05/23 06:44:42;;;;;;;5.53;2.53;;;;;;;15.15;62.44;100506.09;7392454;19;20494;-67
2022/05/23 06:47:10;;;;;;;4.80;2.45;;;;;;;15.27;61.03;100505.56;7392715;19;20042;-66
2022/05/23 06:49:41;;;;;;;4.05;1.27;;;;;;;15.40;59.73;100497.91;7392189;19;20022;-66
2022/05/23 06:52:09;;;;;;;4.28;2.20;;;;;;;15.55;59.15;100504.28;7392103;19;20018;-66
2022/05/23 06:54:37;;;;;;;2.88;1.90;;;;;;;15.68;58.75;100496.63;7390868;19;20033;-66
2022/05/23 06:57:06;;;;;;;5.38;1.30;;;;;;;15.82;58.25;100492.53;7395382;19;20014;-66
2022/05/23 06:59:34;;;;;;;2.65;1.52;;;;;;;15.95;57.52;100491.03;7398094;19;20018;-66
2022/05/23 07:02:03;;;;;;;3.75;1.52;;;;;;;16.09;57.22;100493.00;7399375;19;20040;-66
2022/05/23 07:12:19;;;;;;;5.03;2.90;;;;;;;16.24;56.52;100494.88;7397574;19;20015;-66
2022/05/23 07:12:43;;;;;;;3.20;1.83;;;;;;;16.65;54.40;100491.06;7400200;19;20010;-67
2022/05/23 07:15:12;;;;;;;3.45;1.63;;;;;;;16.75;53.38;100492.31;7399085;19;20491;-67
2022/05/23 07:17:40;;;;;;;5.35;1.50;;;;;;;16.86;53.25;100490.94;7396314;19;20035;-68
2022/05/23 07:20:11;;;;;;;2.08;1.42;;;;;;;16.96;52.73;100500.13;7395754;19;20018;-67
2022/05/23 07:22:42;;;;;;;3.00;1.30;;;;;;;17.05;52.01;100494.34;7399601;19;20334;-67
2022/05/23 07:25:13;;;;;;;5.70;1.88;;;;;;;17.16;51.83;100499.09;7396414;19;20010;-67
2022/05/23 07:27:41;;;;;;;3.72;1.60;;;;;;;17.25;51.65;100487.13;7399434;19;20014;-67
2022/05/23 07:30:10;;;;;;;3.25;1.40;;;;;;;17.33;51.75;100484.91;7397263;19;20022;-66
2022/05/23 07:32:39;;;;;;;3.92;1.33;;;;;;;17.41;51.36;100471.22;7396292;19;20048;-66
2022/05/23 07:35:09;;;;;;;3.97;1.60;;;;;;;17.49;51.21;100468.16;7398688;19;20039;-67
2022/05/23 07:37:38;;;;;;;2.38;1.48;;;;;;;17.58;50.74;100470.31;7397897;19;20367;-67
2022/05/23 07:40:10;;;;;;;4.60;2.42;;;;;;;17.62;49.68;100465.69;7396124;19;20022;-68
2022/05/23 07:42:38;;;;;;;3.90;1.65;;;;;;;17.73;49.68;100464.16;7395600;19;20487;-67
2022/05/23 07:45:08;;;;;;;3.50;1.20;;;;;;;17.82;49.83;100462.78;7395946;19;20036;-67
2022/05/23 07:47:36;;;;;;;2.60;1.02;;;;;;;17.90;49.47;100464.97;7395372;19;20456;-67
2022/05/23 07:50:05;;;;;;;3.42;1.13;;;;;;;17.99;49.14;100461.81;7395417;19;20035;-67
2022/05/23 07:52:33;;;;;;;3.22;1.52;;;;;;;18.06;49.04;100460.53;7397930;19;20011;-68
2022/05/23 08:00:36;;;;;;;4.68;1.70;;;;;;;18.32;48.75;100449.34;7396104;19;20015;-67
2022/05/23 08:03:06;;;;;;;2.63;1.58;;;;;;;18.39;48.65;100443.56;7398361;19;20014;-67
2022/05/23 08:05:35;;;;;;;3.95;1.48;;;;;;;18.49;48.55;100445.72;7396155;19;20048;-67
2022/05/23 08:08:03;;;;;;;3.88;1.10;;;;;;;18.57;47.66;100443.44;7393739;19;20027;-67
2022/05/23 08:10:31;;;;;;;2.55;1.13;;;;;;;18.65;47.01;100441.19;7396255;19;20022;-67
2022/05/23 08:13:08;;;;;;;4.80;1.25;;;;;;;18.77;45.80;100438.72;7395523;19;20014;-67
2022/05/23 08:15:37;;;;;;;3.03;1.10;;;;;;;18.89;45.73;100432.63;7397727;19;20025;-67
2022/05/23 08:18:06;;;;;;;3.92;1.13;;;;;;;18.97;45.18;100434.84;7394427;19;20449;-67
2022/05/23 08:20:35;;;;;;;6.07;1.10;;;;;;;19.04;43.75;100431.75;7395469;19;20018;-67
2022/05/23 08:23:03;;;;;;;3.05;0.95;;;;;;;19.12;43.74;100430.38;7397213;19;20018;-67
2022/05/23 08:25:32;;;;;;;3.22;0.95;;;;;;;19.17;43.41;100423.84;7398423;19;20039;-66
2022/05/23 08:28:02;;;;;;;5.57;1.15;;;;;;;19.23;42.57;100411.09;7397254;19;20018;-65
2022/05/23 08:30:31;;;;;;;2.53;1.00;;;;;;;19.29;42.73;100406.25;7394538;19;20363;-69
2022/05/23 08:32:59;;;;;;;1.88;0.88;;;;;;;19.36;42.90;100404.03;7395031;19;20031;-68
2022/05/23 08:35:27;;;;;;;5.97;1.20;;;;;;;19.43;43.03;100404.50;7395594;19;20507;-68
2022/05/23 08:37:58;;;;;;;4.97;1.00;;;;;;;19.51;42.75;100407.50;7393891;19;20504;-69
2022/05/23 08:40:38;;;;;;;1.98;1.05;;;;;;;19.57;42.36;100407.13;7394131;19;20360;-67
2022/05/23 08:43:09;;;;;;;2.15;1.00;;;;;;;19.65;41.39;100398.63;7394757;19;20019;-67
2022/05/23 08:45:42;;;;;;;2.40;0.82;;;;;;;19.69;41.82;100409.00;7396395;19;20418;-67
2022/05/23 08:48:17;;;;;;;1.60;0.97;;;;;;;19.75;40.98;100398.91;7398567;19;20023;-68
2022/05/23 08:50:56;;;;;;;3.38;0.85;;;;;;;19.82;41.21;100393.09;7394977;19;20027;-68
2022/05/23 08:53:28;;;;;;;5.63;1.10;;;;;;;19.90;41.26;100397.06;7394733;19;20026;-68
2022/05/23 08:56:00;;;;;;;3.63;1.23;;;;;;;19.94;41.19;100399.44;7394840;19;20015;-69
2022/05/23 08:58:37;;;;;;;4.47;1.48;;;;;;;19.98;39.66;100397.38;7395896;19;20035;-68
2022/05/23 09:01:10;;;;;;;3.75;1.30;;;;;;;20.00;40.98;100393.69;7396495;19;20025;-68
2022/05/23 09:03:43;;;;;;;4.77;1.47;;;;;;;20.05;40.57;100390.69;7397036;19;20014;-68
2022/05/23 09:06:15;;;;;;;2.07;1.13;;;;;;;20.10;40.95;100393.91;7394888;19;20044;-68
2022/05/23 09:08:51;;;;;;;4.07;1.27;;;;;;;20.12;40.93;100389.34;7393950;19;20433;-68
2022/05/23 09:11:28;;;;;;;4.20;1.85;;;;;;;20.19;40.62;100384.44;7394601;19;20024;-68
2022/05/23 09:14:00;;;;;;;3.45;1.13;;;;;;;20.26;40.68;100391.06;7395112;19;20375;-68
2022/05/23 09:16:30;;;;;;;4.63;1.05;;;;;;;20.34;40.82;100388.72;7393196;19;20018;-66
2022/05/23 09:19:03;;;;;;;4.15;1.38;;;;;;;20.42;40.86;100385.56;7394646;19;20018;-68
2022/05/23 09:24:12;;;;;;;3.28;1.00;;;;;;;20.58;40.08;100369.34;7392544;19;20019;-67
2022/05/23 09:26:40;;;;;;;1.85;0.85;;;;;;;20.61;40.17;100361.13;7393990;19;20022;-66
2022/05/23 09:29:11;;;;;;;2.90;0.95;;;;;;;20.67;39.29;100359.84;7394632;19;20377;-68
2022/05/23 09:31:46;;;;;;;3.05;1.08;;;;;;;20.73;39.19;100356.78;7395789;19;20045;-66
2022/05/23 09:34:31;;;;;;;2.22;0.88;;;;;;;20.81;38.85;100361.56;7395448;19;20014;-67
2022/05/23 09:37:00;;;;;;;5.10;1.20;;;;;;;20.91;39.67;100343.94;7395018;19;20037;-67
2022/05/23 09:39:30;;;;;;;2.95;1.23;;;;;;;20.98;39.16;100352.38;7393421;19;20023;-68
2022/05/23 09:50:12;;;;;;;2.53;1.13;;;;;;;21.22;38.87;100324.88;7393317;19;20018;-67
2022/05/23 09:52:42;;;;;;;4.88;1.15;;;;;;;21.30;38.95;100328.69;7393933;19;20486;-67
2022/05/23 09:55:14;;;;;;;3.40;1.38;;;;;;;21.37;38.92;100323.75;7393213;19;20022;-67
2022/05/23 09:57:45;;;;;;;2.78;0.93;;;;;;;21.42;38.17;100305.59;7393393;19;20018;-66
2022/05/23 10:00:32;;;;;;;3.55;1.10;;;;;;;21.46;37.24;100306.22;7392239;19;20019;-67
2022/05/23 10:03:04;;;;;;;2.90;1.20;;;;;;;21.49;37.59;100293.47;7393823;19;20365;-65
2022/05/23 10:05:36;;;;;;;5.30;1.40;;;;;;;21.53;37.84;100303.94;7392618;19;20022;-66
2022/05/23 10:08:07;;;;;;;2.63;1.10;;;;;;;21.56;37.03;100301.91;7393110;19;20015;-67
2022/05/23 10:10:37;;;;;;;2.33;1.23;;;;;;;21.58;36.89;100307.13;7393083;19;20022;-66
2022/05/23 10:13:25;;;;;;;2.90;1.27;;;;;;;21.57;36.91;100300.09;7392132;19;20044;-69
2022/05/23 10:16:12;;;;;;;4.72;1.67;;;;;;;21.60;36.49;100295.38;7392451;19;20485;-66
2022/05/23 10:18:50;;;;;;;4.70;1.30;;;;;;;21.67;36.53;100284.22;7391853;19;20039;-67
2022/05/23 10:21:27;;;;;;;4.75;1.50;;;;;;;21.71;36.09;100275.03;7391205;19;20489;-67
2022/05/23 10:24:05;;;;;;;2.45;1.30;;;;;;;21.79;36.82;100275.28;7392310;19;20400;-67
2022/05/23 10:26:36;;;;;;;3.90;1.10;;;;;;;21.87;37.24;100269.38;7393154;19;20485;-67
2022/05/23 10:29:10;;;;;;;2.83;1.15;;;;;;;21.96;36.74;100265.97;7391543;19;20039;-66
2022/05/23 10:31:52;;;;;;;2.10;0.98;;;;;;;22.08;36.15;100266.88;7397195;19;20018;-66
2022/05/23 10:34:34;;;;;;;2.70;0.98;;;;;;;22.16;35.23;100245.72;7400203;19;20032;-66
2022/05/23 10:37:05;;;;;;;4.40;1.30;;;;;;;22.26;35.44;100248.53;7399748;19;20481;-66
2022/05/23 10:42:23;;;;;;;2.28;0.98;;;;;;;22.46;35.39;100233.63;7400607;19;20019;-65
2022/05/23 10:45:05;;;;;;;3.85;1.10;;;;;;;22.57;35.38;100241.63;7400787;19;20031;-66
2022/05/23 10:47:50;;;;;;;2.58;1.80;;;;;;;22.66;34.50;100233.81;7400058;19;20379;-67
2022/05/23 10:50:26;;;;;;;2.13;1.00;;;;;;;22.72;34.61;100206.59;7398497;19;20018;-67
2022/05/23 10:53:04;;;;;;;4.43;1.20;;;;;;;22.78;35.08;100214.13;7400694;19;20014;-67
2022/05/23 10:55:39;;;;;;;3.75;1.10;;;;;;;22.83;35.01;100206.56;7397745;19;20380;-67
2022/05/23 10:58:14;;;;;;;2.03;0.70;;;;;;;22.90;34.50;100204.25;7397946;19;20023;-67
2022/05/23 11:00:51;;;;;;;4.40;1.17;;;;;;;22.96;35.00;100209.06;7397486;19;20035;-67
2022/05/23 11:03:30;;;;;;;1.80;0.90;;;;;;;23.05;34.97;100202.09;7401350;19;20025;-67
2022/05/23 11:06:07;;;;;;;2.22;0.82;;;;;;;23.10;34.19;100194.53;7397247;19;20022;-67
2022/05/23 11:08:53;;;;;;;3.13;1.08;;;;;;;23.18;34.49;100202.00;7400410;19;20043;-67
2022/05/23 11:11:53;;;;;;;3.75;1.17;;;;;;;23.25;34.49;100200.47;7398965;19;20026;-71
2022/05/23 11:14:30;;;;;;;2.90;1.27;;;;;;;23.32;33.92;100201.66;7396754;19;20392;-66
2022/05/23 11:17:06;;;;;;;5.45;1.23;;;;;;;23.38;34.12;100192.25;7397130;19;20018;-66
2022/05/23 11:19:54;;;;;;;5.88;1.15;;;;;;;23.44;34.05;100181.03;7396048;19;20010;-67
2022/05/23 11:22:29;;;;;;;5.40;1.40;;;;;;;23.53;34.14;100180.28;7397801;19;20505;-66
2022/05/23 11:25:20;;;;;;;2.35;1.17;;;;;;;23.59;33.35;100186.91;7396297;19;20021;-67
2022/05/23 11:36:06;;;;;;;5.20;1.20;;;;;;;23.94;33.26;100171.50;7398376;19;20014;-68
2022/05/23 11:38:34;;;;;;;3.45;1.17;;;;;;;23.97;33.87;100161.34;7398994;19;20020;-67
2022/05/23 11:41:08;;;;;;;1.45;1.02;;;;;;;24.07;32.91;100145.31;7395655;19;20022;-67
2022/05/23 11:43:36;;;;;;;1.88;0.88;;;;;;;24.15;33.58;100147.31;7393871;19;20010;-67
2022/05/23 11:46:08;;;;;;;2.63;1.17;;;;;;;24.13;32.77;100142.09;7396978;19;20018;-68
2022/05/23 11:49:00;;;;;;;6.05;1.15;;;;;;;24.08;33.02;100137.13;7395632;19;20399;-68
2022/05/23 11:51:41;;;;;;;2.95;1.20;;;;;;;24.08;33.14;100136.28;7398269;19;20434;-67
2022/05/23 11:54:15;;;;;;;4.60;1.40;;;;;;;24.09;33.24;100127.28;7395903;19;20022;-67
2022/05/23 11:57:14;;;;;;;3.95;0.95;;;;;;;24.19;32.81;100121.94;7398111;19;20027;-68
2022/05/23 12:00:03;;;;;;;3.80;1.00;;;;;;;24.38;32.56;100118.47;7394729;19;20018;-68
2022/05/23 12:02:33;;;;;;;4.65;1.52;;;;;;;24.61;33.12;100123.59;7395143;19;20024;-69
2022/05/23 12:05:15;;;;;;;1.80;1.00;;;;;;;24.79;32.15;100123.75;7397704;19;20033;-69
2022/05/23 12:08:07;;;;;;;3.05;1.42;;;;;;;24.96;32.10;100116.81;7396058;19;20023;-69
2022/05/23 12:10:58;;;;;;;3.85;1.23;;;;;;;25.23;32.24;100109.88;7396219;19;20014;-69
2022/05/23 12:13:48;;;;;;;3.20;1.40;;;;;;;25.53;31.20;100114.22;7397895;19;20019;-68
2022/05/23 12:16:39;;;;;;;2.63;1.50;;;;;;;25.81;31.05;100098.97;7396295;19;20040;-69
2022/05/23 12:19:28;;;;;;;4.03;1.00;;;;;;;25.97;30.04;100087.59;7395581;19;20014;-69
2022/05/23 12:22:18;;;;;;;3.88;0.95;;;;;;;26.03;29.98;100102.28;7395391;19;20025;-69
2022/05/23 12:25:24;;;;;;;4.10;1.50;;;;;;;26.10;29.84;100092.66;7395249;19;20015;-69
2022/05/23 12:28:10;;;;;;;3.50;1.33;;;;;;;26.15;30.16;100082.28;7395876;19;20518;-68
2022/05/23 12:30:43;;;;;;;2.85;1.20;;;;;;;26.23;30.25;100078.00;7395108;19;20392;-68
2022/05/23 12:33:16;;;;;;;2.13;1.10;;;;;;;26.34;30.18;100075.94;7395651;19;20024;-69
2022/05/23 12:35:54;;;;;;;6.68;1.38;;;;;;;26.47;30.03;100078.25;7396203;19;20500;-69
2022/05/23 12:38:41;;;;;;;4.32;0.90;;;;;;;26.66;30.05;100071.88;7394248;19;20510;-68
2022/05/23 12:41:21;;;;;;;4.55;1.25;;;;;;;26.80;29.36;100056.22;7394882;19;20081;-69
2022/05/23 12:44:26;;;;;;;6.35;1.50;;;;;;;26.80;28.35;100064.28;7397395;19;20018;-69